createdAt,value
2023-05-24T00:01:02.945Z,5.95
2023-05-24T00:03:35.275Z,4.97
2023-05-24T00:06:02.325Z,6.70
2023-05-24T00:08:29.250Z,6.30
2023-05-24T00:10:56.201Z,6.82
2023-05-24T00:13:23.112Z,7.20
2023-05-24T00:15:50.067Z,6.75
2023-05-24T00:18:19.608Z,5.68
2023-05-24T00:20:46.881Z,6.25
2023-05-24T00:23:14.148Z,6.30
2023-05-24T00:25:41.033Z,6.65
2023-05-24T00:28:07.927Z,6.72
2023-05-24T00:30:34.800Z,6.90
2023-05-24T00:33:01.743Z,6.55
2023-05-24T00:35:28.643Z,5.87
2023-05-24T00:37:55.568Z,7.62
2023-05-24T00:40:22.455Z,6.05
2023-05-24T00:42:49.523Z,6.57
2023-05-24T00:45:16.458Z,6.32
2023-05-24T00:47:44.110Z,6.70
2023-05-24T00:50:17.406Z,5.72
2023-05-24T00:52:45.273Z,5.70
2023-05-24T00:55:12.823Z,6.28
2023-05-24T00:57:39.908Z,5.93
2023-05-24T01:00:08.299Z,6.55
2023-05-24T01:02:35.619Z,5.05
2023-05-24T01:05:02.996Z,7.32
2023-05-24T01:07:42.040Z,5.97
2023-05-24T01:10:32.536Z,5.97
2023-05-24T01:13:23.825Z,6.07
2023-05-24T01:16:16.062Z,5.57
2023-05-24T01:18:52.877Z,5.35
2023-05-24T01:22:02.038Z,6.30
2023-05-24T01:25:13.356Z,4.85
2023-05-24T01:27:40.894Z,5.80
2023-05-24T01:30:08.401Z,6.03
2023-05-24T01:32:35.646Z,6.18
2023-05-24T01:35:02.518Z,6.62
2023-05-24T01:37:29.382Z,6.40
2023-05-24T01:39:56.537Z,6.22
2023-05-24T01:42:35.190Z,7.22
2023-05-24T01:45:08.073Z,7.12
2023-05-24T01:48:18.975Z,6.75
2023-05-24T01:50:52.840Z,6.28
2023-05-24T01:53:23.395Z,7.10
2023-05-24T01:55:53.647Z,7.25
2023-05-24T01:58:23.234Z,7.22
2023-05-24T02:03:17.959Z,6.68
2023-05-24T02:05:46.402Z,6.57
2023-05-24T02:08:13.584Z,7.07
2023-05-24T02:10:41.512Z,6.57
2023-05-24T02:13:09.198Z,6.37
2023-05-24T02:15:36.693Z,7.80
2023-05-24T02:18:04.381Z,7.50
2023-05-24T02:20:31.768Z,6.07
2023-05-24T02:22:58.812Z,7.12
2023-05-24T02:25:25.837Z,6.93
2023-05-24T02:27:52.836Z,7.40
2023-05-24T02:30:19.857Z,7.75
2023-05-24T02:32:47.001Z,6.47
2023-05-24T02:35:13.922Z,7.12
2023-05-24T02:37:40.968Z,7.12
2023-05-24T02:40:08.432Z,7.37
2023-05-24T02:42:35.542Z,7.65
2023-05-24T02:45:02.841Z,7.87
2023-05-24T02:47:29.906Z,7.60
2023-05-24T02:49:57.197Z,7.78
2023-05-24T02:52:24.140Z,7.62
2023-05-24T02:54:51.035Z,6.30
2023-05-24T02:57:18.528Z,7.87
2023-05-24T02:59:45.459Z,7.03
2023-05-24T03:02:15.166Z,7.32
2023-05-24T03:07:08.829Z,7.10
2023-05-24T03:09:35.908Z,7.15
2023-05-24T03:12:02.830Z,6.60
2023-05-24T03:14:29.706Z,8.05
2023-05-24T03:16:56.661Z,7.10
2023-05-24T03:19:23.633Z,8.70
2023-05-24T03:21:50.639Z,8.05
2023-05-24T03:24:17.521Z,7.55
2023-05-24T03:26:44.530Z,8.10
2023-05-24T03:29:11.574Z,8.15
2023-05-24T03:31:38.471Z,8.02
2023-05-24T03:34:05.370Z,7.25
2023-05-24T03:36:33.015Z,7.05
2023-05-24T03:38:59.957Z,6.55
2023-05-24T03:41:27.795Z,6.50
2023-05-24T03:43:54.786Z,6.15
2023-05-24T03:46:21.718Z,6.45
2023-05-24T03:48:49.753Z,7.05
2023-05-24T03:51:17.014Z,6.57
2023-05-24T03:53:44.271Z,6.90
2023-05-24T03:56:11.260Z,6.22
2023-05-24T03:58:38.888Z,5.93
2023-05-24T04:01:05.916Z,5.75
2023-05-24T04:03:34.523Z,6.87
2023-05-24T04:06:01.712Z,6.65
2023-05-24T04:08:28.571Z,6.65
2023-05-24T04:10:55.905Z,6.35
2023-05-24T04:13:22.815Z,6.05
2023-05-24T04:15:49.854Z,6.65
2023-05-24T04:18:16.875Z,6.10
2023-05-24T04:20:44.060Z,5.87
2023-05-24T04:23:11.153Z,6.70
2023-05-24T04:25:38.059Z,6.10
2023-05-24T04:28:05.057Z,5.72
2023-05-24T04:30:32.442Z,5.25
2023-05-24T04:32:59.450Z,5.72
2023-05-24T04:35:26.447Z,6.57
2023-05-24T04:37:53.460Z,5.95
2023-05-24T04:40:23.339Z,6.15
2023-05-24T04:42:50.973Z,5.68
2023-05-24T04:45:17.796Z,5.82
2023-05-24T04:47:44.792Z,6.65
2023-05-24T04:50:11.713Z,5.95
2023-05-24T04:52:38.780Z,5.53
2023-05-24T04:55:06.223Z,5.60
2023-05-24T04:57:33.072Z,5.50
2023-05-24T05:00:00.095Z,5.75
2023-05-24T05:02:27.365Z,5.40
2023-05-24T05:04:54.281Z,5.45
2023-05-24T05:07:21.747Z,5.78
2023-05-24T05:09:48.711Z,5.22
2023-05-24T05:12:15.714Z,5.15
2023-05-24T05:14:42.718Z,5.20
2023-05-24T05:17:09.647Z,4.97
2023-05-24T05:19:36.619Z,5.70
2023-05-24T05:22:03.680Z,6.18
2023-05-24T05:24:30.709Z,5.32
2023-05-24T05:26:57.678Z,5.22
2023-05-24T05:29:24.752Z,5.65
2023-05-24T05:31:51.758Z,4.80
2023-05-24T05:34:19.751Z,4.72
2023-05-24T05:36:46.893Z,4.68
2023-05-24T05:39:14.302Z,4.90
2023-05-24T05:41:46.388Z,4.40
2023-05-24T05:44:14.126Z,4.10
2023-05-24T05:46:44.021Z,3.75
2023-05-24T05:49:11.183Z,3.12
2023-05-24T05:51:38.994Z,2.92
2023-05-24T05:54:06.914Z,3.10
2023-05-24T05:56:33.883Z,2.35
2023-05-24T05:59:00.936Z,2.62
2023-05-24T06:01:27.798Z,2.17
2023-05-24T06:03:54.813Z,2.35
2023-05-24T06:06:21.777Z,2.58
2023-05-24T06:08:48.702Z,2.50
2023-05-24T06:11:15.657Z,2.70
2023-05-24T06:13:42.606Z,2.92
2023-05-24T06:16:10.104Z,2.62
2023-05-24T06:18:37.273Z,2.85
2023-05-24T06:21:04.467Z,2.50
2023-05-24T06:23:32.417Z,2.65
2023-05-24T06:25:59.328Z,2.60
2023-05-24T06:28:26.327Z,2.85
2023-05-24T06:30:53.290Z,2.53
2023-05-24T06:33:20.303Z,2.47
2023-05-24T06:35:47.245Z,3.25
2023-05-24T06:38:14.178Z,2.70
2023-05-24T06:40:41.970Z,2.50
2023-05-24T06:43:09.029Z,2.22
2023-05-24T06:45:35.994Z,2.45
2023-05-24T06:48:03.254Z,2.67
2023-05-24T06:50:30.389Z,3.00
2023-05-24T06:52:57.283Z,2.47
2023-05-24T06:55:24.040Z,2.33
2023-05-24T06:57:50.970Z,2.60
2023-05-24T07:00:18.974Z,2.70
2023-05-24T07:02:45.892Z,2.33
2023-05-24T07:05:12.877Z,3.22
2023-05-24T07:07:40.952Z,2.58
2023-05-24T07:10:09.231Z,2.33
2023-05-24T07:12:36.218Z,2.70
2023-05-24T07:15:07.303Z,2.10
2023-05-24T07:17:34.312Z,2.20
2023-05-24T07:20:02.166Z,3.20
2023-05-24T07:22:30.274Z,2.75
2023-05-24T07:24:57.266Z,2.53
2023-05-24T07:27:24.232Z,2.65
2023-05-24T07:29:51.271Z,2.78
2023-05-24T07:32:18.547Z,1.87
2023-05-24T07:34:45.520Z,2.00
2023-05-24T07:37:12.425Z,1.98
2023-05-24T07:39:39.608Z,2.10
2023-05-24T07:42:07.581Z,1.92
2023-05-24T07:44:34.497Z,1.90
2023-05-24T07:47:02.746Z,1.75
2023-05-24T07:49:29.708Z,1.80
2023-05-24T07:51:58.581Z,1.75
2023-05-24T07:54:25.929Z,1.33
2023-05-24T07:56:53.043Z,2.15
2023-05-24T07:59:19.958Z,1.73
2023-05-24T08:01:48.039Z,1.60
2023-05-24T08:04:16.323Z,1.48
2023-05-24T08:06:43.334Z,1.37
2023-05-24T08:09:10.587Z,1.30
2023-05-24T08:11:37.645Z,1.60
2023-05-24T08:14:04.505Z,1.27
2023-05-24T08:16:32.155Z,1.60
2023-05-24T08:18:59.087Z,1.50
2023-05-24T08:21:26.437Z,1.62
2023-05-24T08:23:53.362Z,1.50
2023-05-24T08:26:21.205Z,1.40
2023-05-24T08:28:48.411Z,1.30
2023-05-24T08:31:15.465Z,1.27
2023-05-24T08:33:43.235Z,1.05
2023-05-24T08:36:10.498Z,1.33
2023-05-24T08:38:37.414Z,1.23
2023-05-24T08:41:07.446Z,1.20
2023-05-24T08:43:35.601Z,1.23
2023-05-24T08:46:04.108Z,1.60
2023-05-24T08:48:31.524Z,1.13
2023-05-24T08:50:59.617Z,1.17
2023-05-24T08:53:27.662Z,1.10
2023-05-24T08:55:56.351Z,1.05
2023-05-24T08:58:23.596Z,1.00
2023-05-24T09:00:50.674Z,1.30
2023-05-24T09:03:18.874Z,1.23
2023-05-24T09:05:46.381Z,1.23
2023-05-24T09:08:18.248Z,1.30
2023-05-24T09:13:20.005Z,1.23
2023-05-24T09:15:47.239Z,1.30
2023-05-24T09:18:14.202Z,1.10
2023-05-24T09:20:41.573Z,1.08
2023-05-24T09:23:08.942Z,0.93
2023-05-24T09:25:36.124Z,1.37
2023-05-24T09:28:08.681Z,1.10
2023-05-24T09:30:36.764Z,1.17
2023-05-24T09:33:05.782Z,1.10
2023-05-24T09:35:33.041Z,1.10
2023-05-24T09:38:00.703Z,1.48
2023-05-24T09:40:28.867Z,1.15
2023-05-24T09:43:10.161Z,1.55
2023-05-24T09:45:46.902Z,1.75
2023-05-24T09:48:15.592Z,1.30
2023-05-24T09:50:45.933Z,0.93
2023-05-24T09:53:13.080Z,1.20
2023-05-24T09:55:40.063Z,1.20
2023-05-24T09:58:11.786Z,1.30
2023-05-24T10:00:41.633Z,1.33
2023-05-24T10:03:15.386Z,1.00
2023-05-24T10:05:45.517Z,1.20
2023-05-24T10:08:14.618Z,1.08
2023-05-24T10:10:42.690Z,1.10
2023-05-24T10:13:10.718Z,1.00
2023-05-24T10:15:38.450Z,0.95
2023-05-24T10:18:10.671Z,1.40
2023-05-24T10:20:42.113Z,1.20
2023-05-24T10:23:10.945Z,1.30
2023-05-24T10:25:42.236Z,1.00
2023-05-24T10:28:12.953Z,1.33
2023-05-24T10:31:02.257Z,2.50
2023-05-24T10:33:31.568Z,1.60
2023-05-24T10:35:58.973Z,1.27
2023-05-24T10:38:26.053Z,1.37
2023-05-24T10:40:53.387Z,1.55
2023-05-24T10:43:22.337Z,1.50
2023-05-24T10:45:50.906Z,1.10
2023-05-24T10:48:17.916Z,1.20
2023-05-24T10:50:45.296Z,1.40
2023-05-24T10:53:16.144Z,2.12
2023-05-24T10:55:52.783Z,1.10
2023-05-24T10:58:20.640Z,1.30
2023-05-24T11:00:49.303Z,1.42
2023-05-24T11:03:23.932Z,1.27
2023-05-24T11:05:53.603Z,1.23
2023-05-24T11:08:32.148Z,1.37
2023-05-24T11:13:40.931Z,1.40
2023-05-24T11:16:08.257Z,1.30
2023-05-24T11:18:38.817Z,1.27
2023-05-24T11:21:06.821Z,1.12
2023-05-24T11:23:35.981Z,1.05
2023-05-24T11:26:04.387Z,1.37
2023-05-24T11:28:32.873Z,1.25
2023-05-24T11:31:09.720Z,1.10
2023-05-24T11:33:41.818Z,10.27
2023-05-24T11:36:08.828Z,1.20
2023-05-24T11:38:36.891Z,1.30
2023-05-24T11:41:03.974Z,1.00
2023-05-24T11:43:31.752Z,1.17
2023-05-24T11:45:58.708Z,1.20
2023-05-24T11:48:26.296Z,1.20
2023-05-24T11:50:53.432Z,1.00
2023-05-24T11:53:25.098Z,1.60
2023-05-24T11:55:54.626Z,1.10
2023-05-24T11:58:29.770Z,1.58
2023-05-24T12:00:56.654Z,1.25
2023-05-24T12:03:23.774Z,1.50
2023-05-24T12:05:51.530Z,1.15
2023-05-24T12:08:18.694Z,1.20
2023-05-24T12:10:45.903Z,1.23
2023-05-24T12:13:24.415Z,1.27
2023-05-24T12:15:56.610Z,1.13
2023-05-24T12:18:26.671Z,1.12
2023-05-24T12:20:54.004Z,1.17
2023-05-24T12:23:24.401Z,1.20
2023-05-24T12:25:51.597Z,1.48
2023-05-24T12:28:25.093Z,1.20
2023-05-24T12:30:52.933Z,1.00
2023-05-24T12:33:21.265Z,0.93
2023-05-24T12:35:50.099Z,1.15
2023-05-24T12:38:25.584Z,1.35
2023-05-24T12:41:07.944Z,1.00
2023-05-24T12:43:39.750Z,1.10
2023-05-24T12:46:07.159Z,1.05
2023-05-24T12:48:34.258Z,1.40
2023-05-24T12:51:02.476Z,1.25
2023-05-24T12:53:29.631Z,1.40
2023-05-24T12:55:56.701Z,0.90
2023-05-24T12:58:23.935Z,1.15
2023-05-24T13:00:52.148Z,1.08
2023-05-24T13:03:19.093Z,1.20
2023-05-24T13:05:47.488Z,1.33
2023-05-24T13:08:14.829Z,1.40
2023-05-24T13:10:41.817Z,1.10
2023-05-24T13:13:09.058Z,1.40
2023-05-24T13:15:36.449Z,1.27
2023-05-24T13:18:03.379Z,1.00
2023-05-24T13:20:30.370Z,1.30
2023-05-24T13:22:57.277Z,1.25
2023-05-24T13:25:24.196Z,1.10
2023-05-24T13:27:51.202Z,1.00
2023-05-24T13:30:18.210Z,1.27
2023-05-24T13:32:45.273Z,1.00
2023-05-24T13:35:12.193Z,1.15
2023-05-24T13:37:39.250Z,1.50
2023-05-24T13:40:07.008Z,1.60
2023-05-24T13:42:33.972Z,1.20
2023-05-24T13:45:01.270Z,1.40
2023-05-24T13:47:39.233Z,1.23
2023-05-24T13:50:07.611Z,1.77
2023-05-24T13:52:35.104Z,1.10
2023-05-24T13:55:05.098Z,1.40
2023-05-24T13:57:49.842Z,1.25
2023-05-24T14:00:19.203Z,1.25
2023-05-24T14:02:46.267Z,1.12
2023-05-24T14:05:26.692Z,1.23
2023-05-24T14:07:55.184Z,1.25
2023-05-24T14:10:22.207Z,1.00
2023-05-24T14:12:59.350Z,1.10
2023-05-24T14:15:31.136Z,1.70
2023-05-24T14:17:58.949Z,1.15
2023-05-24T14:20:25.928Z,2.55
2023-05-24T14:22:52.877Z,1.50
2023-05-24T14:25:20.008Z,1.17
2023-05-24T14:27:47.097Z,1.33
2023-05-24T14:30:14.834Z,1.35
2023-05-24T14:32:41.734Z,2.58
2023-05-24T14:35:08.867Z,1.48
2023-05-24T14:37:35.868Z,1.52
2023-05-24T14:40:02.943Z,1.55
2023-05-24T14:42:29.907Z,1.58
2023-05-24T14:44:56.848Z,1.90
2023-05-24T14:47:23.750Z,1.80
2023-05-24T14:49:51.007Z,1.80
2023-05-24T14:52:17.897Z,1.40
2023-05-24T14:54:44.735Z,1.52
2023-05-24T14:57:12.347Z,1.30
2023-05-24T14:59:39.219Z,1.10
2023-05-24T15:02:06.688Z,1.37
2023-05-24T15:04:33.834Z,1.33
2023-05-24T15:07:00.939Z,1.40
2023-05-24T15:09:27.861Z,1.65
2023-05-24T15:11:54.720Z,1.23
2023-05-24T15:14:22.089Z,1.42
2023-05-24T15:16:49.792Z,1.62
2023-05-24T15:19:16.751Z,1.67
2023-05-24T15:21:43.622Z,1.48
2023-05-24T15:24:10.544Z,2.28
2023-05-24T15:26:37.710Z,1.50
2023-05-24T15:29:04.887Z,1.40
2023-05-24T15:31:31.819Z,1.33
2023-05-24T15:33:58.744Z,1.23
2023-05-24T15:36:25.719Z,1.40
2023-05-24T15:38:52.573Z,1.20
2023-05-24T15:41:19.475Z,1.40
2023-05-24T15:43:46.610Z,1.17
2023-05-24T15:46:13.548Z,1.58
2023-05-24T15:48:40.504Z,1.33
2023-05-24T15:53:37.820Z,1.83
2023-05-24T15:56:04.958Z,1.58
2023-05-24T15:58:31.819Z,1.12
2023-05-24T16:00:58.689Z,1.65
2023-05-24T16:03:25.677Z,1.37
2023-05-24T16:05:52.650Z,1.33
2023-05-24T16:08:19.891Z,1.27
2023-05-24T16:10:46.877Z,1.60
2023-05-24T16:13:14.123Z,1.95
2023-05-24T16:15:42.694Z,2.08
2023-05-24T16:18:09.791Z,1.75
2023-05-24T16:20:37.004Z,1.62
2023-05-24T16:23:04.059Z,1.30
2023-05-24T16:25:30.975Z,1.60
2023-05-24T16:27:57.939Z,1.87
2023-05-24T16:30:24.848Z,1.70
2023-05-24T16:32:51.801Z,1.77
2023-05-24T16:35:18.824Z,2.00
2023-05-24T16:37:45.751Z,2.40
2023-05-24T16:40:12.874Z,1.60
2023-05-24T16:42:39.780Z,2.22
2023-05-24T16:45:07.038Z,1.80
2023-05-24T16:47:34.014Z,1.80
2023-05-24T16:50:00.943Z,2.03
2023-05-24T16:52:27.879Z,2.03
2023-05-24T16:54:54.745Z,1.90
2023-05-24T16:57:21.603Z,2.45
2023-05-24T16:59:50.636Z,1.85
2023-05-24T17:02:17.722Z,2.35
2023-05-24T17:04:44.568Z,2.20
2023-05-24T17:07:11.476Z,1.83
2023-05-24T17:09:38.377Z,2.40
2023-05-24T17:12:05.566Z,2.17
2023-05-24T17:14:32.515Z,1.85
2023-05-24T17:16:59.390Z,2.35
2023-05-24T17:19:26.393Z,2.60
2023-05-24T17:21:53.287Z,2.58
2023-05-24T17:24:21.884Z,2.22
2023-05-24T17:26:48.723Z,2.10
2023-05-24T17:29:15.836Z,2.33
2023-05-24T17:31:42.698Z,2.03
2023-05-24T17:34:09.613Z,2.70
2023-05-24T17:36:37.756Z,2.50
2023-05-24T17:39:07.428Z,2.37
2023-05-24T17:41:34.432Z,2.40
2023-05-24T17:44:01.315Z,2.62
2023-05-24T17:46:28.308Z,2.60
2023-05-24T17:48:55.270Z,2.40
2023-05-24T17:51:24.676Z,2.72
2023-05-24T17:53:51.835Z,2.75
2023-05-24T17:56:18.804Z,2.50
2023-05-24T17:58:47.566Z,3.65
2023-05-24T18:01:15.481Z,5.93
2023-05-24T18:03:42.917Z,3.55
2023-05-24T18:06:10.098Z,3.45
2023-05-24T18:08:42.599Z,2.55
2023-05-24T18:11:11.453Z,2.60
2023-05-24T18:13:39.739Z,2.80
2023-05-24T18:16:07.435Z,2.83
2023-05-24T18:18:34.780Z,3.42
2023-05-24T18:21:01.756Z,2.70
2023-05-24T18:23:28.729Z,2.72
2023-05-24T18:26:01.406Z,2.42
2023-05-24T18:28:30.205Z,2.55
2023-05-24T18:30:57.219Z,3.65
2023-05-24T18:33:24.524Z,2.75
2023-05-24T18:35:51.646Z,2.12
2023-05-24T18:38:18.693Z,2.40
2023-05-24T18:40:45.955Z,2.47
2023-05-24T18:43:12.866Z,2.40
2023-05-24T18:45:39.772Z,2.20
2023-05-24T18:48:07.056Z,2.40
2023-05-24T18:50:34.080Z,3.37
2023-05-24T18:53:01.509Z,2.60
2023-05-24T18:55:28.664Z,2.58
2023-05-24T18:57:55.698Z,1.80
2023-05-24T19:00:25.473Z,2.62
2023-05-24T19:02:52.566Z,2.22
2023-05-24T19:05:20.259Z,2.95
2023-05-24T19:07:47.262Z,2.55
2023-05-24T19:10:14.250Z,2.40
2023-05-24T19:12:41.242Z,2.03
2023-05-24T19:15:08.739Z,2.30
2023-05-24T19:17:35.961Z,2.62
2023-05-24T19:20:03.376Z,2.20
2023-05-24T19:22:30.469Z,2.33
2023-05-24T19:24:57.391Z,2.67
2023-05-24T19:27:24.761Z,2.75
2023-05-24T19:29:51.826Z,2.53
2023-05-24T19:32:20.433Z,2.12
2023-05-24T19:34:47.579Z,2.63
2023-05-24T19:37:15.957Z,2.10
2023-05-24T19:39:42.923Z,2.20
2023-05-24T19:42:12.010Z,2.60
2023-05-24T19:44:38.955Z,2.40
2023-05-24T19:47:06.018Z,2.78
2023-05-24T19:49:32.897Z,2.35
2023-05-24T19:51:59.784Z,2.90
2023-05-24T19:54:26.681Z,2.78
2023-05-24T19:56:55.350Z,2.47
2023-05-24T19:59:22.280Z,2.40
2023-05-24T20:01:49.375Z,2.87
2023-05-24T20:04:16.362Z,3.12
2023-05-24T20:06:43.280Z,3.10
2023-05-24T20:09:10.339Z,2.45
2023-05-24T20:11:37.356Z,2.62
2023-05-24T20:14:04.632Z,2.70
2023-05-24T20:16:31.710Z,2.70
2023-05-24T20:18:58.598Z,3.20
2023-05-24T20:21:25.535Z,2.40
2023-05-24T20:23:57.813Z,2.37
2023-05-24T20:26:25.977Z,2.60
2023-05-24T20:28:52.914Z,2.60
2023-05-24T20:31:19.971Z,2.50
2023-05-24T20:33:47.083Z,2.67
2023-05-24T20:36:15.287Z,3.17
2023-05-24T20:38:42.463Z,2.28
2023-05-24T20:41:09.514Z,3.03
2023-05-24T20:43:36.526Z,2.70
2023-05-24T20:46:03.562Z,2.50
2023-05-24T20:48:30.519Z,2.42
2023-05-24T20:50:57.629Z,2.60
2023-05-24T20:53:24.683Z,2.62
2023-05-24T20:55:51.679Z,2.70
2023-05-24T20:58:18.645Z,2.83
2023-05-24T21:00:46.061Z,2.53
2023-05-24T21:03:13.184Z,3.00
2023-05-24T21:05:40.548Z,3.72
2023-05-24T21:08:07.583Z,2.95
2023-05-24T21:10:34.555Z,3.17
2023-05-24T21:13:01.479Z,2.83
2023-05-24T21:15:28.347Z,2.72
2023-05-24T21:17:55.323Z,3.05
2023-05-24T21:20:22.516Z,3.08
2023-05-24T21:22:49.588Z,3.12
2023-05-24T21:25:16.590Z,2.83
2023-05-24T21:27:43.531Z,2.92
2023-05-24T21:30:10.830Z,3.58
2023-05-24T21:32:37.806Z,4.00
2023-05-24T21:35:05.107Z,2.90
2023-05-24T21:37:31.970Z,2.87
2023-05-24T21:39:58.860Z,3.50
2023-05-24T21:42:25.743Z,3.00
2023-05-24T21:44:52.628Z,2.72
2023-05-24T21:47:19.490Z,3.25
2023-05-24T21:49:46.362Z,3.17
2023-05-24T21:52:13.300Z,3.08
2023-05-24T21:54:40.156Z,3.20
2023-05-24T21:57:07.470Z,3.55
2023-05-24T21:59:34.347Z,3.00
2023-05-24T22:02:01.378Z,2.72
2023-05-24T22:04:28.342Z,2.97
2023-05-24T22:06:55.260Z,2.85
2023-05-24T22:09:22.349Z,3.87
2023-05-24T22:11:49.242Z,3.08
2023-05-24T22:14:16.436Z,3.28
2023-05-24T22:16:43.405Z,3.08
2023-05-24T22:19:14.479Z,3.05
2023-05-24T22:21:43.078Z,2.78
2023-05-24T22:24:10.568Z,2.50
2023-05-24T22:26:37.644Z,3.50
2023-05-24T22:29:04.885Z,3.10
2023-05-24T22:31:33.741Z,3.50
2023-05-24T22:34:03.720Z,4.25
2023-05-24T22:36:34.745Z,3.80
2023-05-24T22:39:02.370Z,3.65
2023-05-24T22:41:29.568Z,3.75
2023-05-24T22:43:57.402Z,3.30
2023-05-24T22:46:24.882Z,3.53
2023-05-24T22:48:52.693Z,3.80
2023-05-24T22:51:20.354Z,3.97
2023-05-24T22:53:48.757Z,3.90
2023-05-24T22:56:18.088Z,3.50
2023-05-24T22:58:44.956Z,4.18
2023-05-24T23:01:12.037Z,4.45
2023-05-24T23:03:38.966Z,4.50
2023-05-24T23:06:06.130Z,4.30
2023-05-24T23:08:33.733Z,4.28
2023-05-24T23:11:01.019Z,3.25
2023-05-24T23:13:28.273Z,3.78
2023-05-24T23:15:58.720Z,4.18
2023-05-24T23:18:26.654Z,3.55
2023-05-24T23:20:56.795Z,4.50
2023-05-24T23:23:25.057Z,4.15
2023-05-24T23:25:52.015Z,4.57
2023-05-24T23:28:19.315Z,4.07
2023-05-24T23:30:46.302Z,3.92
2023-05-24T23:33:13.172Z,4.22
2023-05-24T23:35:40.158Z,4.68
2023-05-24T23:38:07.138Z,4.90
2023-05-24T23:40:34.691Z,5.10
2023-05-24T23:43:01.549Z,5.05
2023-05-24T23:45:28.553Z,5.07
2023-05-24T23:47:55.654Z,4.50
2023-05-24T23:50:22.828Z,4.82
2023-05-24T23:52:50.171Z,4.32
2023-05-24T23:55:18.452Z,4.40
2023-05-24T23:57:46.261Z,5.03
